Time;durP1;ratioP1;P1;durP2;ratioP2;P2;SDS_P1;SDS_P2;PMS_P1;PMS_P2;Temp;Humidity;BMP_temperature;BMP_pressure;BME280_temperature;BME280_humidity;BME280_pressure;Samples;Min_cycle;Max_cycle;Signal;HPM_P1;HPM_P2
2021/10/16 09:22:07;;;;;;;4.80;1.47;;;13.40;99.90;;;;;;4980229;23;20627;-73
2021/10/16 09:24:35;;;;;;;1.43;0.70;;;13.20;99.90;;;;;;4955240;29;20263;-71
2021/10/16 09:27:05;;;;;;;3.93;0.93;;;13.00;99.90;;;;;;4957175;28;20231;-74
2021/10/16 09:29:34;;;;;;;5.80;0.67;;;12.90;99.90;;;;;;4956965;29;20212;-74
2021/10/16 09:32:04;;;;;;;2.87;0.73;;;12.90;99.90;;;;;;4956861;29;20208;-74
2021/10/16 09:34:33;;;;;;;5.87;0.60;;;12.90;99.90;;;;;;4957088;29;20219;-74
2021/10/16 09:37:07;;;;;;;7.17;0.70;;;13.10;99.90;;;;;;4955909;28;20674;-72
2021/10/16 09:39:34;;;;;;;1.77;0.70;;;13.10;99.90;;;;;;4937584;29;20215;-73
2021/10/16 09:42:02;;;;;;;2.63;0.60;;;13.20;99.90;;;;;;4937991;29;20208;-71
2021/10/16 09:44:30;;;;;;;4.40;0.70;;;13.30;99.90;;;;;;4937522;29;20213;-72
2021/10/16 09:47:04;;;;;;;4.97;0.80;;;13.50;99.90;;;;;;4937721;29;20564;-71
2021/10/16 09:49:33;;;;;;;5.47;0.87;;;13.70;99.90;;;;;;4943803;29;20208;-71
2021/10/16 09:52:01;;;;;;;3.27;0.70;;;13.80;99.90;;;;;;4956852;29;20566;-71
2021/10/16 09:54:30;;;;;;;2.80;0.73;;;13.70;99.90;;;;;;4956922;29;20211;-71
2021/10/16 09:56:59;;;;;;;2.77;0.80;;;13.60;99.90;;;;;;4956317;29;20303;-73
2021/10/16 09:59:26;;;;;;;4.63;1.23;;;13.70;99.90;;;;;;4956003;28;20204;-72
2021/10/16 10:01:54;;;;;;;3.23;0.80;;;13.80;99.90;;;;;;4956412;29;20212;-71
2021/10/16 10:04:23;;;;;;;1.97;0.60;;;13.90;99.90;;;;;;4956448;29;20619;-72
2021/10/16 10:06:50;;;;;;;1.70;0.63;;;13.80;99.90;;;;;;4956005;29;20239;-71
2021/10/16 10:09:17;;;;;;;6.43;0.80;;;13.80;99.90;;;;;;4955805;28;20295;-72
2021/10/16 10:11:48;;;;;;;5.13;0.80;;;13.70;99.90;;;;;;4955831;29;20212;-71
2021/10/16 10:14:19;;;;;;;5.83;1.00;;;13.50;99.90;;;;;;4955866;29;20207;-72
2021/10/16 10:16:47;;;;;;;6.67;0.83;;;13.50;99.90;;;;;;4955698;29;20203;-71
2021/10/16 10:19:15;;;;;;;1.73;0.70;;;13.40;99.90;;;;;;4955673;29;20208;-72
2021/10/16 10:21:43;;;;;;;2.10;0.73;;;13.50;99.90;;;;;;4955865;28;20689;-71
2021/10/16 10:24:11;;;;;;;2.50;0.80;;;13.50;99.90;;;;;;4956084;29;20223;-71
2021/10/16 10:26:39;;;;;;;4.23;0.90;;;13.50;99.90;;;;;;4955509;29;20236;-72
2021/10/16 10:29:09;;;;;;;3.33;0.70;;;13.50;99.90;;;;;;4955395;29;20714;-72
2021/10/16 10:31:59;;;;;;;3.63;1.00;;;13.50;99.90;;;;;;4955670;29;20214;-71
2021/10/16 10:34:29;;;;;;;2.83;0.87;;;13.70;99.90;;;;;;4955813;29;20208;-72
2021/10/16 10:37:00;;;;;;;4.80;0.83;;;13.40;99.90;;;;;;4955320;29;20667;-72
2021/10/16 10:39:52;;;;;;;4.53;0.90;;;13.30;99.90;;;;;;4955826;29;20216;-71
2021/10/16 10:42:47;;;;;;;3.53;0.87;;;13.50;99.90;;;;;;4952941;28;20208;-71
2021/10/16 10:45:40;;;;;;;2.30;0.63;;;13.50;99.90;;;;;;4955706;29;20215;-71
2021/10/16 10:48:15;;;;;;;2.90;0.50;;;13.50;99.90;;;;;;4955700;28;20656;-71
2021/10/16 10:51:02;;;;;;;3.63;0.70;;;13.60;99.90;;;;;;4955823;28;20211;-71
2021/10/16 10:53:38;;;;;;;3.63;0.43;;;13.80;99.90;;;;;;4955469;29;20210;-72
2021/10/16 10:56:22;;;;;;;2.33;0.47;;;13.70;99.90;;;;;;4955565;29;20246;-72
2021/10/16 10:59:04;;;;;;;2.00;0.60;;;13.70;99.90;;;;;;4955555;29;20227;-71
2021/10/16 11:01:57;;;;;;;2.73;0.43;;;13.60;99.90;;;;;;4950441;28;20247;-73
2021/10/16 11:04:43;;;;;;;2.67;1.17;;;13.90;99.90;;;;;;4960253;28;20262;-73
2021/10/16 11:07:13;;;;;;;4.47;0.70;;;14.10;99.90;;;;;;4974263;28;20242;-72
2021/10/16 17:48:32;;;;;;;3.80;2.10;;;10.00;99.90;;;;;;2776399;23;20235;-70
2021/10/16 17:50:59;;;;;;;7.03;2.63;;;9.80;99.90;;;;;;4948969;28;20208;-73
2021/10/16 17:53:26;;;;;;;8.83;2.23;;;9.70;99.90;;;;;;4945474;29;20215;-74
2021/10/16 17:55:53;;;;;;;10.67;3.20;;;9.70;99.90;;;;;;4947641;28;20233;-71
2021/10/16 17:58:19;;;;;;;6.80;2.93;;;9.60;99.90;;;;;;4946191;29;20566;-69
2021/10/16 18:00:47;;;;;;;10.47;3.17;;;9.60;99.90;;;;;;4939442;29;20628;-72
2021/10/16 18:03:14;;;;;;;7.70;2.80;;;9.50;99.90;;;;;;4953157;29;20216;-69
2021/10/16 18:05:42;;;;;;;7.57;2.67;;;9.50;99.90;;;;;;4944354;29;20228;-69
2021/10/16 18:08:11;;;;;;;11.73;3.40;;;9.50;99.90;;;;;;4944974;29;20213;-72
2021/10/16 18:10:39;;;;;;;11.57;3.70;;;9.30;99.90;;;;;;4948105;29;20591;-71
2021/10/16 18:13:06;;;;;;;7.17;3.87;;;9.40;99.90;;;;;;4945806;29;20687;-75
2021/10/16 18:15:34;;;;;;;9.50;3.67;;;9.40;99.90;;;;;;4945396;28;20216;-72
2021/10/16 18:18:01;;;;;;;8.80;3.90;;;9.20;99.90;;;;;;4952144;29;20231;-71
2021/10/16 18:20:28;;;;;;;8.53;4.30;;;9.00;99.90;;;;;;4944579;29;20656;-71
2021/10/16 18:22:56;;;;;;;9.30;4.87;;;9.00;99.90;;;;;;4949534;29;20211;-70
2021/10/16 18:25:24;;;;;;;13.97;4.57;;;9.10;99.90;;;;;;4939713;29;20213;-71
2021/10/16 18:27:51;;;;;;;10.00;4.67;;;9.20;99.90;;;;;;4944106;29;20639;-70
2021/10/16 18:30:18;;;;;;;9.07;4.83;;;9.30;99.90;;;;;;4947786;28;20210;-73
2021/10/16 18:32:45;;;;;;;12.53;4.10;;;9.30;99.90;;;;;;4946827;29;20298;-69
2021/10/16 18:35:12;;;;;;;13.20;4.20;;;9.10;99.90;;;;;;4943932;29;20215;-71
2021/10/16 18:37:40;;;;;;;10.03;4.23;;;9.00;99.90;;;;;;4945848;29;20237;-68
2021/10/16 18:40:10;;;;;;;11.83;5.60;;;9.10;99.90;;;;;;4946714;29;20217;-69
2021/10/16 18:42:36;;;;;;;13.13;6.00;;;9.10;99.90;;;;;;4950512;29;20212;-69
2021/10/16 18:45:04;;;;;;;15.80;6.80;;;9.10;99.90;;;;;;4947878;29;20208;-69
2021/10/16 18:47:31;;;;;;;16.33;7.30;;;9.10;99.90;;;;;;4948957;28;20710;-75
2021/10/16 18:49:58;;;;;;;16.57;7.00;;;8.90;99.90;;;;;;4945952;28;20222;-69
2021/10/16 18:52:25;;;;;;;12.83;6.07;;;8.80;99.90;;;;;;4940235;29;20208;-71
2021/10/16 18:54:52;;;;;;;15.27;5.90;;;8.70;99.90;;;;;;4941562;28;20204;-72
2021/10/16 18:57:20;;;;;;;12.37;5.87;;;8.80;99.90;;;;;;4951985;28;20221;-70
2021/10/16 18:59:47;;;;;;;9.70;5.00;;;8.80;99.90;;;;;;4944130;29;20212;-73
2021/10/16 19:02:14;;;;;;;13.47;5.30;;;8.80;99.90;;;;;;4948265;29;20205;-69
2021/10/16 19:04:41;;;;;;;11.50;4.80;;;8.80;99.90;;;;;;4950563;29;20220;-75
2021/10/16 19:07:07;;;;;;;13.00;4.63;;;8.70;99.90;;;;;;4949740;29;20243;-70
2021/10/16 19:09:35;;;;;;;13.30;4.40;;;8.80;99.90;;;;;;4945231;29;20215;-70
2021/10/16 19:12:02;;;;;;;10.83;4.33;;;8.70;99.90;;;;;;4941556;29;20236;-71
2021/10/16 19:14:30;;;;;;;8.00;4.37;;;8.50;99.90;;;;;;4948537;29;20213;-69
2021/10/16 19:16:57;;;;;;;8.83;4.17;;;8.40;99.90;;;;;;4950143;28;20238;-71
2021/10/16 19:19:24;;;;;;;11.17;4.07;;;8.40;99.90;;;;;;4948604;29;20545;-70
2021/10/16 19:21:51;;;;;;;11.43;3.90;;;8.50;99.90;;;;;;4950304;29;20212;-72
2021/10/16 19:24:17;;;;;;;7.87;3.83;;;8.60;99.90;;;;;;4947222;29;20215;-70
2021/10/16 19:26:44;;;;;;;9.70;4.00;;;8.70;99.90;;;;;;4952504;28;20326;-70
2021/10/16 19:29:13;;;;;;;10.03;4.10;;;8.70;99.90;;;;;;4948908;29;20301;-73
2021/10/16 19:31:41;;;;;;;7.33;3.80;;;8.50;99.90;;;;;;4944409;29;20303;-70
2021/10/16 19:34:08;;;;;;;12.50;4.00;;;8.30;99.90;;;;;;4943134;29;20204;-72
2021/10/16 19:36:35;;;;;;;7.63;3.50;;;8.20;99.90;;;;;;4946911;28;20243;-70
2021/10/16 19:39:02;;;;;;;10.87;3.53;;;8.10;99.90;;;;;;4945107;29;20225;-69
2021/10/16 19:41:28;;;;;;;8.67;3.43;;;8.10;99.90;;;;;;4941159;28;20558;-72
2021/10/16 19:43:55;;;;;;;8.47;3.33;;;8.20;99.90;;;;;;4944787;29;20681;-70
2021/10/16 19:46:22;;;;;;;7.70;3.50;;;8.20;99.90;;;;;;4942613;29;20310;-71
2021/10/16 19:48:50;;;;;;;9.10;3.30;;;8.20;99.90;;;;;;4947571;29;20215;-72
2021/10/16 19:51:17;;;;;;;5.53;2.80;;;8.30;99.90;;;;;;4951305;29;20215;-71
2021/10/16 19:53:44;;;;;;;6.53;3.00;;;8.20;99.90;;;;;;4947797;29;20215;-69
2021/10/16 19:56:10;;;;;;;6.23;3.03;;;8.10;99.90;;;;;;4944028;29;20220;-73
2021/10/16 19:58:37;;;;;;;7.40;3.30;;;8.00;99.90;;;;;;4943077;29;20204;-72
2021/10/16 20:01:05;;;;;;;6.50;3.13;;;8.00;99.90;;;;;;4939870;29;20213;-68
2021/10/16 20:03:32;;;;;;;7.93;3.03;;;7.90;99.90;;;;;;4944154;29;20302;-70
2021/10/16 20:06:01;;;;;;;11.30;3.60;;;8.00;99.90;;;;;;4943282;29;20662;-76
2021/10/16 20:08:27;;;;;;;7.43;3.30;;;8.00;99.90;;;;;;4945410;29;20727;-70
2021/10/16 20:10:54;;;;;;;8.13;3.10;;;8.10;99.90;;;;;;4943824;29;20211;-70
2021/10/16 20:13:21;;;;;;;7.00;3.17;;;8.00;99.90;;;;;;4948769;29;20223;-70
2021/10/16 20:15:48;;;;;;;8.30;3.60;;;8.00;99.90;;;;;;4947705;28;20220;-72
2021/10/16 20:18:16;;;;;;;11.23;3.10;;;8.00;99.90;;;;;;4945387;29;20297;-71
2021/10/16 20:20:43;;;;;;;8.33;3.53;;;8.10;99.90;;;;;;4949457;29;20262;-73
2021/10/16 20:23:11;;;;;;;6.10;3.00;;;8.00;99.90;;;;;;4947287;29;20212;-71
2021/10/16 20:25:38;;;;;;;7.90;3.83;;;7.80;99.90;;;;;;4947857;29;20231;-72
2021/10/16 20:28:06;;;;;;;8.00;3.43;;;7.80;99.90;;;;;;4948085;29;20235;-70
2021/10/16 20:30:33;;;;;;;8.77;4.00;;;7.90;99.90;;;;;;4947622;29;20232;-71
2021/10/16 20:33:00;;;;;;;6.70;3.20;;;8.00;99.90;;;;;;4943466;29;20200;-70
2021/10/16 20:35:27;;;;;;;9.77;3.73;;;7.90;99.90;;;;;;4949793;28;20218;-69
2021/10/16 20:37:55;;;;;;;7.23;3.70;;;7.70;99.90;;;;;;4951473;29;20639;-70
2021/10/16 20:40:24;;;;;;;8.47;3.60;;;7.60;99.90;;;;;;4945086;29;20671;-71
2021/10/16 20:42:51;;;;;;;9.17;4.00;;;7.40;99.90;;;;;;4942923;29;20205;-75
2021/10/16 20:45:18;;;;;;;11.57;4.00;;;7.40;99.90;;;;;;4939924;29;20216;-70
2021/10/16 20:47:44;;;;;;;7.20;3.43;;;7.50;99.90;;;;;;4940910;29;20247;-70
2021/10/16 20:50:11;;;;;;;8.87;3.90;;;7.50;99.90;;;;;;4944827;28;20217;-71
2021/10/16 20:52:38;;;;;;;7.10;3.80;;;7.50;99.90;;;;;;4942710;29;20205;-71
2021/10/16 20:55:06;;;;;;;7.60;4.03;;;7.50;99.90;;;;;;4956238;29;20242;-70
